Jasper, Georgia
Current Conditions -  °F | °C
As of 11:55 PM on Saturday 22 Nov 2014 (Local Time) from KCNI Reporting Station
Overcast Overcast  
Wind Chill: 52°   Ceiling: 2500
Heat Index: 52°   Visibility: 10mi
Dew Point: 12°   Wind: 7mph
Humidity: 21%   Direction: 80°E
Pressure: 30.21"   Gusts: NA
Location:  34.47°N, 84.43°W
Report Text: KCNI 230455Z AUTO 08006KT 10SM OVC025 11/M11 A3021 RMK AO2
Loading
Personal Weather Stations






























Interactive Weather Map New forecast layout! Learn more

10-Day Weather Forecast

Advertisements
Track Severe Weather on mobile